createdAt,value
2017-11-08T00:01:26.154Z,6.00
2017-11-08T00:03:53.923Z,6.00
2017-11-08T00:06:21.450Z,6.10
2017-11-08T00:08:49.179Z,6.10
2017-11-08T00:11:16.900Z,6.10
2017-11-08T00:13:44.407Z,6.20
2017-11-08T00:16:11.908Z,6.10
2017-11-08T00:18:39.417Z,6.20
2017-11-08T00:21:07.733Z,6.20
2017-11-08T00:23:36.035Z,6.20
2017-11-08T00:26:03.527Z,6.20
2017-11-08T00:28:31.047Z,6.30
2017-11-08T00:30:58.544Z,6.40
2017-11-08T00:33:26.829Z,6.30
2017-11-08T00:35:54.328Z,6.30
2017-11-08T00:38:21.992Z,6.30
2017-11-08T00:40:49.755Z,6.20
2017-11-08T00:43:17.269Z,6.20
2017-11-08T00:45:44.760Z,6.30
2017-11-08T00:48:12.252Z,6.30
2017-11-08T00:50:39.757Z,6.30
2017-11-08T00:53:10.232Z,6.40
2017-11-08T00:55:37.829Z,6.40
2017-11-08T00:58:05.508Z,6.40
2017-11-08T01:00:34.915Z,6.40
2017-11-08T01:03:02.405Z,6.50
2017-11-08T01:05:30.148Z,6.50
2017-11-08T01:07:57.898Z,6.40
2017-11-08T01:10:25.393Z,6.50
2017-11-08T01:12:52.892Z,6.60
2017-11-08T01:15:20.400Z,6.70
2017-11-08T01:17:47.896Z,6.70
2017-11-08T01:20:16.166Z,6.80
2017-11-08T01:22:43.665Z,6.70
2017-11-08T01:25:11.174Z,6.70
2017-11-08T01:27:39.445Z,6.70
2017-11-08T01:30:06.928Z,6.60
2017-11-08T01:32:34.428Z,6.70
2017-11-08T01:35:02.128Z,6.70
2017-11-08T01:37:35.276Z,6.70
2017-11-08T01:40:02.780Z,6.70
2017-11-08T01:42:33.047Z,6.70
2017-11-08T01:45:00.651Z,6.70
2017-11-08T01:47:28.161Z,6.80
2017-11-08T01:49:55.657Z,6.80
2017-11-08T01:52:23.201Z,6.70
2017-11-08T01:54:51.345Z,6.60
2017-11-08T01:57:19.056Z,6.70
2017-11-08T01:59:46.560Z,6.70
2017-11-08T02:02:14.074Z,6.70
2017-11-08T02:04:41.706Z,6.70
2017-11-08T02:07:09.231Z,6.70
2017-11-08T02:09:36.742Z,6.70
2017-11-08T02:12:04.954Z,6.70
2017-11-08T02:14:32.463Z,6.70
2017-11-08T02:17:00.216Z,6.80
2017-11-08T02:19:27.713Z,6.70
2017-11-08T02:21:55.215Z,6.80
2017-11-08T02:24:22.707Z,6.80
2017-11-08T02:26:53.018Z,6.80
2017-11-08T02:29:20.542Z,6.90
2017-11-08T02:31:48.026Z,6.90
2017-11-08T02:34:15.786Z,6.90
2017-11-08T02:36:43.280Z,6.90
2017-11-08T02:39:10.774Z,6.90
2017-11-08T02:41:38.293Z,7.00
2017-11-08T02:44:05.777Z,6.90
2017-11-08T02:46:33.320Z,6.90
2017-11-08T02:49:00.835Z,6.90
2017-11-08T02:51:28.594Z,6.90
2017-11-08T02:53:56.087Z,6.90
2017-11-08T02:56:23.600Z,7.00
2017-11-08T02:58:51.281Z,6.90
2017-11-08T03:01:18.780Z,6.90
2017-11-08T03:03:46.400Z,6.90
2017-11-08T03:06:13.943Z,6.90
2017-11-08T03:08:41.720Z,6.90
2017-11-08T03:11:09.640Z,7.00
2017-11-08T03:13:37.252Z,7.00
2017-11-08T03:16:04.744Z,7.10
2017-11-08T03:18:32.251Z,7.10
2017-11-08T03:20:59.887Z,7.10
2017-11-08T03:23:27.389Z,7.10
2017-11-08T03:25:54.909Z,7.10
2017-11-08T03:28:22.439Z,7.00
2017-11-08T03:30:50.689Z,7.10
2017-11-08T03:33:18.226Z,7.10
2017-11-08T03:35:46.510Z,7.10
2017-11-08T03:38:14.015Z,7.00
2017-11-08T03:40:41.528Z,7.10
2017-11-08T03:43:09.043Z,7.10
2017-11-08T03:45:36.542Z,7.10
2017-11-08T03:48:04.046Z,7.10
2017-11-08T03:50:31.612Z,7.10
2017-11-08T03:52:59.242Z,7.00
2017-11-08T03:55:26.764Z,7.00
2017-11-08T03:57:54.256Z,7.10
2017-11-08T04:00:22.000Z,7.10
2017-11-08T04:02:49.517Z,7.10
2017-11-08T04:05:17.205Z,7.10
2017-11-08T04:07:44.941Z,7.10
2017-11-08T04:10:12.431Z,7.10
2017-11-08T04:12:39.936Z,7.10
2017-11-08T04:15:07.440Z,7.10
2017-11-08T04:17:34.948Z,7.10
2017-11-08T04:20:02.461Z,7.10
2017-11-08T04:22:29.992Z,7.00
2017-11-08T04:24:58.310Z,7.00
2017-11-08T04:27:26.580Z,7.10
2017-11-08T04:29:54.106Z,7.00
2017-11-08T04:32:21.604Z,7.00
2017-11-08T04:34:49.115Z,7.10
2017-11-08T04:37:16.902Z,7.20
2017-11-08T04:39:44.432Z,7.20
2017-11-08T04:42:12.429Z,7.20
2017-11-08T04:44:40.216Z,7.20
2017-11-08T04:47:07.995Z,7.20
2017-11-08T04:49:35.722Z,7.20
2017-11-08T04:52:03.264Z,7.30
2017-11-08T04:54:30.772Z,7.30
2017-11-08T04:56:59.036Z,7.40
2017-11-08T04:59:26.552Z,7.30
2017-11-08T05:01:54.232Z,7.30
2017-11-08T05:04:21.770Z,7.40
2017-11-08T05:06:49.434Z,7.40
2017-11-08T05:09:16.953Z,7.40
2017-11-08T05:11:44.604Z,7.40
2017-11-08T05:14:12.104Z,7.40
2017-11-08T05:16:39.614Z,7.30
2017-11-08T05:19:07.117Z,7.40
2017-11-08T05:21:34.612Z,7.30
2017-11-08T05:24:02.189Z,7.40
2017-11-08T05:26:29.691Z,7.40
2017-11-08T05:28:57.196Z,7.50
2017-11-08T05:31:24.729Z,7.40
2017-11-08T05:33:52.229Z,7.40
2017-11-08T05:36:20.496Z,7.50
2017-11-08T05:38:48.098Z,7.40
2017-11-08T05:41:15.726Z,7.50
2017-11-08T05:43:43.467Z,7.40
2017-11-08T05:46:10.974Z,7.40
2017-11-08T05:48:38.616Z,7.40
2017-11-08T05:51:06.430Z,7.50
2017-11-08T05:53:33.921Z,7.50
2017-11-08T05:56:01.661Z,7.40
2017-11-08T05:58:29.216Z,7.40
2017-11-08T06:00:56.888Z,7.40
2017-11-08T06:03:24.416Z,7.40
2017-11-08T06:05:51.945Z,7.40
2017-11-08T06:08:19.585Z,7.40
2017-11-08T06:10:47.080Z,7.40
2017-11-08T06:13:14.608Z,7.50
2017-11-08T06:15:42.985Z,7.50
2017-11-08T06:18:11.516Z,7.50
2017-11-08T06:20:39.280Z,7.50
2017-11-08T06:23:06.817Z,7.50
2017-11-08T06:25:34.479Z,7.50
2017-11-08T06:28:02.144Z,7.50
2017-11-08T06:30:29.669Z,7.50
2017-11-08T06:32:57.195Z,7.50
2017-11-08T06:35:24.969Z,7.50
2017-11-08T06:37:52.732Z,7.60
2017-11-08T06:40:20.242Z,7.60
2017-11-08T06:42:47.743Z,7.60
2017-11-08T06:45:15.256Z,7.60
2017-11-08T06:47:42.905Z,7.60
2017-11-08T06:50:11.157Z,7.60
2017-11-08T06:52:38.671Z,7.60
2017-11-08T06:55:06.194Z,7.60
2017-11-08T06:57:33.747Z,7.50
2017-11-08T07:00:01.276Z,7.60
2017-11-08T07:02:28.788Z,7.50
2017-11-08T07:04:56.406Z,7.60
2017-11-08T07:07:24.667Z,7.60
2017-11-08T07:09:52.375Z,7.50
2017-11-08T07:12:19.899Z,7.50
2017-11-08T07:14:47.621Z,7.50
2017-11-08T07:17:15.134Z,7.50
2017-11-08T07:19:42.641Z,7.60
2017-11-08T07:22:10.310Z,7.50
2017-11-08T07:24:38.101Z,7.40
2017-11-08T07:27:05.844Z,7.40
2017-11-08T07:29:33.384Z,7.50
2017-11-08T07:32:00.958Z,7.30
2017-11-08T07:34:29.229Z,5.90
2017-11-08T07:36:56.900Z,7.40
2017-11-08T07:39:24.403Z,7.40
2017-11-08T07:41:52.032Z,7.40
2017-11-08T07:44:19.552Z,7.40
2017-11-08T07:46:47.068Z,7.40
2017-11-08T07:49:14.778Z,7.60
2017-11-08T07:51:42.287Z,7.60
2017-11-08T07:54:11.785Z,7.60
2017-11-08T07:56:39.295Z,7.80
2017-11-08T07:59:06.810Z,7.80
2017-11-08T08:01:34.328Z,7.80
2017-11-08T08:04:01.983Z,7.70
2017-11-08T08:06:30.118Z,7.60
2017-11-08T08:08:57.820Z,7.70
2017-11-08T08:11:25.589Z,7.80
2017-11-08T08:13:59.853Z,7.80
2017-11-08T08:16:27.411Z,7.90
2017-11-08T08:18:55.011Z,7.80
2017-11-08T08:21:23.400Z,7.80
2017-11-08T08:23:51.137Z,7.90
2017-11-08T08:26:21.048Z,7.90
2017-11-08T08:28:48.828Z,7.80
2017-11-08T08:31:16.362Z,7.90
2017-11-08T08:33:44.012Z,7.90
2017-11-08T08:36:11.540Z,7.90
2017-11-08T08:38:39.257Z,8.00
2017-11-08T08:41:06.752Z,8.00
2017-11-08T08:43:34.417Z,7.90
2017-11-08T08:46:01.932Z,8.00
2017-11-08T08:48:29.768Z,8.00
2017-11-08T08:50:57.259Z,8.10
2017-11-08T08:53:24.948Z,8.10
2017-11-08T08:55:52.464Z,8.20
2017-11-08T08:58:20.011Z,8.20
2017-11-08T09:00:47.508Z,8.20
2017-11-08T09:03:15.069Z,8.20
2017-11-08T09:05:42.570Z,8.30
2017-11-08T09:08:10.070Z,8.40
2017-11-08T09:10:37.571Z,8.50
2017-11-08T09:13:06.112Z,8.70
2017-11-08T09:15:33.636Z,8.60
2017-11-08T09:18:01.332Z,8.70
2017-11-08T09:20:28.831Z,8.80
2017-11-08T09:22:56.335Z,8.90
2017-11-08T09:25:26.790Z,8.90
2017-11-08T09:27:54.303Z,8.90
2017-11-08T09:30:21.874Z,8.90
2017-11-08T09:32:49.367Z,8.90
2017-11-08T09:35:16.863Z,8.90
2017-11-08T09:37:49.954Z,8.90
2017-11-08T09:40:17.451Z,8.90
2017-11-08T09:42:47.877Z,8.90
2017-11-08T09:45:15.373Z,8.80
2017-11-08T09:47:42.912Z,8.90
2017-11-08T09:50:10.561Z,8.90
2017-11-08T09:52:41.881Z,8.90
2017-11-08T09:55:09.384Z,8.90
2017-11-08T09:57:36.897Z,9.00
2017-11-08T10:00:04.707Z,9.00
2017-11-08T10:02:35.228Z,9.00
2017-11-08T10:05:02.701Z,9.10
2017-11-08T10:07:30.196Z,9.10
2017-11-08T10:09:57.749Z,9.20
2017-11-08T10:12:25.201Z,9.30
2017-11-08T10:14:52.710Z,9.40
2017-11-08T10:17:20.214Z,9.40
2017-11-08T10:19:47.713Z,9.40
2017-11-08T10:22:15.655Z,9.40
2017-11-08T10:24:43.144Z,9.40
2017-11-08T10:27:10.648Z,9.40
2017-11-08T10:29:38.177Z,9.50
2017-11-08T10:32:05.680Z,9.50
2017-11-08T10:34:33.328Z,9.40
2017-11-08T10:37:00.892Z,9.30
2017-11-08T10:39:28.596Z,9.10
2017-11-08T10:41:56.430Z,9.10
2017-11-08T10:44:23.887Z,9.10
2017-11-08T10:46:51.388Z,9.20
2017-11-08T10:49:20.987Z,9.20
2017-11-08T10:51:49.292Z,9.10
2017-11-08T10:54:16.782Z,9.10
2017-11-08T10:56:44.286Z,9.20
2017-11-08T10:59:18.289Z,9.40
2017-11-08T11:01:45.797Z,9.30
2017-11-08T11:04:13.301Z,9.40
2017-11-08T11:06:40.818Z,9.50
2017-11-08T11:09:08.325Z,9.60
2017-11-08T11:11:36.862Z,9.60
2017-11-08T11:14:12.959Z,9.60
2017-11-08T11:16:40.495Z,9.70
2017-11-08T11:19:12.756Z,9.70
2017-11-08T11:21:40.255Z,9.80
2017-11-08T11:24:12.653Z,9.70
2017-11-08T11:26:41.993Z,9.70
2017-11-08T11:29:10.240Z,9.80
2017-11-08T11:31:38.171Z,9.70
2017-11-08T11:34:06.581Z,9.80
2017-11-08T11:36:34.177Z,9.80
2017-11-08T11:39:01.723Z,9.90
2017-11-08T11:41:29.213Z,9.90
2017-11-08T11:43:57.481Z,9.90
2017-11-08T11:46:24.979Z,9.80
2017-11-08T11:48:53.593Z,9.90
2017-11-08T11:51:26.113Z,9.90
2017-11-08T11:53:54.395Z,9.90
2017-11-08T11:56:21.897Z,9.80
2017-11-08T11:58:49.409Z,9.80
2017-11-08T12:01:17.974Z,9.80
2017-11-08T12:03:45.521Z,9.70
2017-11-08T12:06:13.177Z,9.70
2017-11-08T12:08:40.675Z,9.80
2017-11-08T12:11:08.194Z,10.00
2017-11-08T12:13:35.701Z,10.00
2017-11-08T12:16:03.306Z,10.10
2017-11-08T12:18:30.809Z,9.90
2017-11-08T12:20:58.316Z,9.90
2017-11-08T12:23:25.821Z,9.90
2017-11-08T12:25:54.106Z,9.90
2017-11-08T12:28:23.350Z,9.90
2017-11-08T12:30:50.858Z,9.80
2017-11-08T12:33:18.353Z,9.90
2017-11-08T12:35:48.051Z,9.80
2017-11-08T12:38:15.544Z,9.80
2017-11-08T12:40:43.260Z,9.70
2017-11-08T12:43:13.470Z,9.80
2017-11-08T12:45:41.785Z,9.80
2017-11-08T12:48:09.328Z,9.70
2017-11-08T12:50:37.537Z,9.80
2017-11-08T12:53:05.062Z,9.90
2017-11-08T12:55:32.578Z,10.00
2017-11-08T12:58:00.857Z,9.90
2017-11-08T13:00:28.386Z,9.90
2017-11-08T13:02:55.877Z,10.00
2017-11-08T13:05:28.810Z,10.10
2017-11-08T13:07:56.321Z,10.10
2017-11-08T13:10:25.376Z,10.00
2017-11-08T13:12:52.860Z,10.00
2017-11-08T13:15:20.392Z,9.80
2017-11-08T13:17:47.899Z,9.90
2017-11-08T13:20:15.401Z,9.90
2017-11-08T13:22:42.904Z,9.90
2017-11-08T13:25:11.169Z,9.50
2017-11-08T13:27:38.689Z,9.50
2017-11-08T13:30:06.178Z,9.50
2017-11-08T13:32:33.690Z,9.60
2017-11-08T13:35:01.172Z,9.00
2017-11-08T13:37:28.673Z,9.60
2017-11-08T13:39:56.181Z,9.70
2017-11-08T13:42:23.689Z,9.80
2017-11-08T13:44:51.184Z,9.70
2017-11-08T13:47:19.529Z,9.70
2017-11-08T13:49:47.038Z,9.80
2017-11-08T13:52:14.547Z,9.80
2017-11-08T13:54:42.065Z,9.60
2017-11-08T13:57:09.604Z,9.70
2017-11-08T13:59:37.392Z,9.60
2017-11-08T14:02:04.890Z,9.70
2017-11-08T14:04:33.196Z,9.70
2017-11-08T14:07:00.733Z,9.70
2017-11-08T14:09:28.245Z,9.40
2017-11-08T14:11:55.757Z,9.40
2017-11-08T14:14:23.249Z,9.50
2017-11-08T14:16:50.750Z,9.60
2017-11-08T14:19:18.257Z,9.60
2017-11-08T14:21:45.782Z,9.60
2017-11-08T14:24:13.484Z,9.70
2017-11-08T14:26:44.013Z,9.80
2017-11-08T14:29:17.114Z,9.80
2017-11-08T14:31:44.757Z,9.50
2017-11-08T14:34:15.287Z,9.50
2017-11-08T14:36:42.792Z,9.50
2017-11-08T14:39:10.310Z,9.50
2017-11-08T14:41:38.893Z,9.50
2017-11-08T14:44:06.397Z,9.40
2017-11-08T14:46:34.013Z,9.20
2017-11-08T14:49:01.521Z,9.20
2017-11-08T14:51:35.593Z,9.20
2017-11-08T14:54:03.102Z,9.20
2017-11-08T14:56:30.649Z,9.10
2017-11-08T14:58:58.161Z,9.10
2017-11-08T15:01:25.676Z,9.20
2017-11-08T15:03:53.236Z,9.20
2017-11-08T15:06:20.725Z,9.30
2017-11-08T15:08:48.278Z,9.30
2017-11-08T15:11:15.825Z,9.30
2017-11-08T15:13:43.496Z,9.30
2017-11-08T15:16:11.011Z,9.30
2017-11-08T15:18:38.536Z,9.30
2017-11-08T15:21:06.052Z,9.30
2017-11-08T15:23:33.546Z,9.40
2017-11-08T15:26:01.062Z,9.40
2017-11-08T15:28:28.559Z,9.30
2017-11-08T15:30:56.063Z,9.40
2017-11-08T15:33:23.740Z,9.40
2017-11-08T15:35:51.270Z,9.20
2017-11-08T15:38:18.769Z,9.20
2017-11-08T15:40:46.273Z,9.20
2017-11-08T15:43:14.544Z,9.20
2017-11-08T15:45:42.289Z,9.20
2017-11-08T15:48:10.074Z,9.20
2017-11-08T15:50:37.766Z,9.00
2017-11-08T15:53:05.680Z,9.00
2017-11-08T15:55:33.306Z,8.90
2017-11-08T15:58:00.808Z,9.00
2017-11-08T16:00:28.311Z,9.00
2017-11-08T16:02:55.813Z,9.00
2017-11-08T16:05:23.461Z,9.00
2017-11-08T16:07:51.236Z,9.00
2017-11-08T16:10:18.719Z,8.90
2017-11-08T16:12:46.466Z,8.90
2017-11-08T16:15:13.974Z,9.00
2017-11-08T16:17:41.685Z,9.10
2017-11-08T16:20:14.817Z,9.10
2017-11-08T16:22:42.321Z,9.10
2017-11-08T16:25:09.865Z,9.00
2017-11-08T16:27:37.361Z,8.90
2017-11-08T16:30:04.878Z,8.90
2017-11-08T16:32:32.521Z,8.90
2017-11-08T16:35:00.021Z,8.90
2017-11-08T16:37:27.533Z,9.00
2017-11-08T16:39:55.341Z,9.00
2017-11-08T16:42:22.990Z,9.00
2017-11-08T16:44:50.803Z,9.00
2017-11-08T16:47:18.304Z,9.00
2017-11-08T16:49:45.805Z,9.00
2017-11-08T16:52:14.108Z,8.90
2017-11-08T16:54:41.609Z,8.90
2017-11-08T16:57:09.266Z,8.90
2017-11-08T16:59:36.777Z,9.00
2017-11-08T17:02:04.485Z,9.00
2017-11-08T17:04:32.006Z,9.00
2017-11-08T17:06:59.734Z,9.10
2017-11-08T17:09:27.234Z,9.10
2017-11-08T17:11:54.947Z,9.10
2017-11-08T17:14:22.456Z,8.90
2017-11-08T17:16:49.961Z,9.00
2017-11-08T17:19:17.465Z,9.00
2017-11-08T17:21:44.965Z,9.10
2017-11-08T17:24:12.476Z,9.00
2017-11-08T17:26:40.272Z,9.00
2017-11-08T17:29:07.773Z,8.90
2017-11-08T17:31:35.286Z,9.00
2017-11-08T17:34:02.788Z,9.00
2017-11-08T17:36:31.073Z,9.00
2017-11-08T17:38:58.569Z,9.00
2017-11-08T17:41:26.105Z,8.90
2017-11-08T17:43:53.701Z,9.00
2017-11-08T17:46:21.210Z,9.00
2017-11-08T17:48:48.940Z,8.90
2017-11-08T17:51:16.473Z,9.00
2017-11-08T17:53:44.125Z,9.00
2017-11-08T17:56:11.644Z,8.90
2017-11-08T17:58:39.353Z,8.70
2017-11-08T18:01:06.863Z,8.60
2017-11-08T18:03:34.369Z,8.60
2017-11-08T18:06:01.933Z,8.60
2017-11-08T18:08:29.492Z,8.70
2017-11-08T18:10:57.238Z,8.70
2017-11-08T18:13:24.766Z,8.70
2017-11-08T18:15:52.409Z,8.70
2017-11-08T18:18:19.936Z,8.70
2017-11-08T18:20:47.445Z,8.80
2017-11-08T18:23:15.112Z,8.80
2017-11-08T18:25:42.621Z,8.80
2017-11-08T18:28:10.378Z,8.80
2017-11-08T18:30:38.135Z,8.70
2017-11-08T18:33:05.677Z,8.50
2017-11-08T18:35:33.247Z,8.50
2017-11-08T18:38:00.858Z,8.50
2017-11-08T18:40:28.537Z,8.60
2017-11-08T18:42:56.053Z,8.70
2017-11-08T18:45:23.791Z,8.70
2017-11-08T18:47:51.308Z,8.80
2017-11-08T18:50:18.831Z,8.70
2017-11-08T18:52:46.337Z,8.60
2017-11-08T18:55:13.839Z,8.70
2017-11-08T18:57:41.348Z,8.70
2017-11-08T19:00:08.853Z,8.70
2017-11-08T19:02:36.349Z,8.60
2017-11-08T19:05:03.866Z,8.60
2017-11-08T19:07:31.385Z,8.60
2017-11-08T19:09:58.947Z,8.70
2017-11-08T19:12:26.459Z,8.70
2017-11-08T19:14:54.965Z,8.70
2017-11-08T19:17:22.473Z,8.60
2017-11-08T19:19:50.748Z,8.70
2017-11-08T19:22:18.243Z,8.60
2017-11-08T19:24:46.513Z,8.60
2017-11-08T19:27:14.012Z,8.50
2017-11-08T19:29:41.534Z,8.60
2017-11-08T19:32:09.942Z,8.50
2017-11-08T19:34:37.521Z,8.50
2017-11-08T19:37:05.037Z,8.40
2017-11-08T19:39:32.750Z,8.50
2017-11-08T19:42:00.254Z,8.50
2017-11-08T19:44:27.762Z,8.50
2017-11-08T19:46:56.052Z,8.40
2017-11-08T19:49:23.548Z,8.40
2017-11-08T19:51:51.049Z,8.40
2017-11-08T19:54:18.690Z,8.50
2017-11-08T19:56:46.351Z,8.40
2017-11-08T19:59:13.861Z,8.50
2017-11-08T20:01:41.728Z,8.40
2017-11-08T20:04:09.457Z,8.40
2017-11-08T20:06:37.233Z,8.40
2017-11-08T20:09:05.606Z,8.30
2017-11-08T20:11:33.483Z,8.30
2017-11-08T20:14:00.970Z,8.20
2017-11-08T20:16:29.409Z,8.30
2017-11-08T20:18:57.830Z,8.30
2017-11-08T20:21:25.329Z,8.20
2017-11-08T20:23:52.837Z,8.20
2017-11-08T20:26:20.369Z,8.30
2017-11-08T20:28:47.861Z,8.30
2017-11-08T20:31:16.140Z,8.20
2017-11-08T20:33:43.654Z,8.20
2017-11-08T20:36:11.176Z,8.20
2017-11-08T20:38:38.713Z,8.20
2017-11-08T20:41:06.211Z,8.10
2017-11-08T20:43:33.725Z,8.10
2017-11-08T20:46:01.238Z,8.10
2017-11-08T20:48:28.755Z,8.10
2017-11-08T20:50:56.257Z,8.00
2017-11-08T20:53:23.755Z,8.10
2017-11-08T20:55:51.256Z,8.00
2017-11-08T20:58:18.776Z,8.00
2017-11-08T21:00:46.472Z,8.00
2017-11-08T21:03:14.007Z,8.10
2017-11-08T21:05:41.506Z,8.20
2017-11-08T21:08:09.036Z,8.20
2017-11-08T21:10:36.530Z,8.10
2017-11-08T21:13:04.085Z,8.10
2017-11-08T21:15:31.573Z,8.20
2017-11-08T21:17:59.085Z,8.20
2017-11-08T21:20:26.589Z,8.20
2017-11-08T21:22:54.857Z,8.20
2017-11-08T21:25:22.765Z,8.20
2017-11-08T21:27:50.379Z,8.10
2017-11-08T21:30:18.108Z,8.10
2017-11-08T21:32:45.888Z,8.20
2017-11-08T21:35:13.645Z,8.00
2017-11-08T21:37:41.141Z,8.10
2017-11-08T21:40:08.645Z,8.10
2017-11-08T21:42:36.277Z,8.10
2017-11-08T21:45:03.808Z,8.20
2017-11-08T21:47:31.533Z,8.10
2017-11-08T21:49:59.041Z,8.20
2017-11-08T21:52:26.556Z,8.20
2017-11-08T21:54:54.085Z,8.20
2017-11-08T21:57:21.624Z,8.30
2017-11-08T21:59:49.145Z,8.30
2017-11-08T22:02:17.070Z,8.40
2017-11-08T22:04:44.627Z,8.40
2017-11-08T22:07:12.436Z,8.30
2017-11-08T22:09:40.053Z,8.30
2017-11-08T22:12:07.562Z,8.30
2017-11-08T22:14:35.068Z,8.10
2017-11-08T22:17:02.569Z,8.10
2017-11-08T22:19:30.087Z,8.20
2017-11-08T22:21:57.781Z,8.20
2017-11-08T22:24:28.229Z,8.20
2017-11-08T22:26:55.734Z,8.20
2017-11-08T22:29:23.246Z,8.20
2017-11-08T22:31:50.733Z,8.20
2017-11-08T22:34:18.282Z,8.20
2017-11-08T22:36:46.196Z,8.20
2017-11-08T22:39:13.726Z,8.20
2017-11-08T22:41:41.256Z,8.20
2017-11-08T22:44:09.766Z,8.10
2017-11-08T22:46:37.301Z,8.10
2017-11-08T22:49:05.733Z,8.20
2017-11-08T22:51:33.367Z,8.20
2017-11-08T22:54:01.162Z,8.20
2017-11-08T22:56:28.921Z,8.20
2017-11-08T22:58:56.681Z,8.20
2017-11-08T23:01:24.189Z,8.30
2017-11-08T23:03:51.694Z,8.20
2017-11-08T23:06:19.336Z,8.20
2017-11-08T23:08:46.838Z,8.30
2017-11-08T23:11:14.346Z,8.30
2017-11-08T23:13:41.843Z,8.30
2017-11-08T23:16:09.350Z,8.20
2017-11-08T23:18:36.957Z,8.20
2017-11-08T23:21:04.700Z,8.20
2017-11-08T23:23:34.033Z,8.20
2017-11-08T23:26:01.545Z,8.10
2017-11-08T23:28:29.183Z,8.20
2017-11-08T23:30:56.681Z,8.10
2017-11-08T23:33:24.175Z,8.10
2017-11-08T23:35:51.717Z,8.10
2017-11-08T23:38:19.339Z,8.10
2017-11-08T23:40:46.849Z,8.20
2017-11-08T23:43:15.069Z,8.20
2017-11-08T23:45:42.665Z,8.20
2017-11-08T23:48:10.421Z,8.20
2017-11-08T23:50:39.737Z,8.40
2017-11-08T23:53:13.816Z,8.30
2017-11-08T23:55:41.376Z,8.20
2017-11-08T23:58:09.704Z,8.20
